Station Historical Data
Daily Summary for January 20, 2017 Units:  English    Metric   Both
« Previous Day
Next Day »
Daily Weekly Monthly Yearly Custom
  High: Low: Average:
Temperature: 47.2 °F 34.1 °F 39.8 °F
Dew Point: 46.0 °F 32.8 °F 38 °F
Humidity: 96% 85% 93%
Wind Speed: 11.0mph 0.0mph 1.5mph
Wind Gust: 14.0mph - -
Wind- - East
Pressure: 29.99 in 29.72 in -
Precipitation: 0.00 in    
Historical Graphs
 
 
Tabular Data for January 20, 2017
Time Temperature Dew Point Pressure Wind Wind Speed Wind Gust Humidity Rainfall Rate (Hourly)
00:04 34.1 °F 32.8 °F 29.99 in Calm     95% 0.00 in
00:09 34.1 °F 32.8 °F 29.98 in Calm     95% 0.00 in
00:14 34.2 °F 32.9 °F 29.98 in South 1.0 mph 2.0 mph 95% 0.00 in
00:19 34.1 °F 32.8 °F 29.98 in Calm   2.0 mph 95% 0.00 in
00:24 34.2 °F 32.9 °F 29.98 in Calm   2.0 mph 95% 0.00 in
00:29 34.2 °F 32.9 °F 29.97 in ENE 1.0 mph 3.0 mph 95% 0.00 in
00:34 34.2 °F 32.9 °F 29.97 in ENE 1.0 mph 3.0 mph 95% 0.00 in
00:39 34.2 °F 32.9 °F 29.97 in Calm   3.0 mph 95% 0.00 in
00:44 34.2 °F 32.9 °F 29.97 in ENE 1.0 mph 4.0 mph 95% 0.00 in
00:49 34.2 °F 32.9 °F 29.97 in ENE 2.0 mph 3.0 mph 95% 0.00 in
00:54 34.3 °F 33.0 °F 29.96 in NE 2.0 mph 5.0 mph 95% 0.00 in
00:59 34.2 °F 32.9 °F 29.96 in NE 2.0 mph 3.0 mph 95% 0.00 in
01:04 34.3 °F 33.0 °F 29.96 in NE 2.0 mph 3.0 mph 95% 0.00 in
01:09 34.3 °F 33.0 °F 29.95 in NE 2.0 mph 5.0 mph 95% 0.00 in
01:14 34.3 °F 33.0 °F 29.95 in ENE 3.0 mph 4.0 mph 95% 0.00 in
01:19 34.3 °F 33.0 °F 29.95 in ENE 1.0 mph 3.0 mph 95% 0.00 in
01:24 34.3 °F 33.0 °F 29.95 in NE 2.0 mph 4.0 mph 95% 0.00 in
01:29 34.3 °F 33.0 °F 29.95 in NE 2.0 mph 4.0 mph 95% 0.00 in
01:34 34.3 °F 33.0 °F 29.95 in NE 2.0 mph 4.0 mph 95% 0.00 in
01:39 34.3 °F 33.0 °F 29.95 in NE 2.0 mph 4.0 mph 95% 0.00 in
01:44 34.3 °F 33.0 °F 29.95 in NE 2.0 mph 4.0 mph 95% 0.00 in
01:49 34.4 °F 33.1 °F 29.95 in Calm   2.0 mph 95% 0.00 in
01:54 34.4 °F 33.1 °F 29.95 in NE 1.0 mph 4.0 mph 95% 0.00 in
01:59 34.4 °F 33.1 °F 29.94 in NE 1.0 mph 3.0 mph 95% 0.00 in
02:04 34.4 °F 33.1 °F 29.95 in Calm   2.0 mph 95% 0.00 in
02:09 34.5 °F 33.2 °F 29.95 in ENE 1.0 mph 3.0 mph 95% 0.00 in
02:14 34.5 °F 33.2 °F 29.95 in NE 2.0 mph 3.0 mph 95% 0.00 in
02:19 34.5 °F 33.2 °F 29.95 in Calm   3.0 mph 95% 0.00 in
02:24 34.6 °F 33.3 °F 29.95 in Calm     95% 0.00 in
02:29 34.6 °F 33.3 °F 29.95 in Calm     95% 0.00 in
02:34 34.6 °F 33.3 °F 29.95 in Calm     95% 0.00 in
02:39 34.6 °F 33.3 °F 29.94 in Calm     95% 0.00 in
02:44 34.6 °F 33.3 °F 29.94 in Calm     95% 0.00 in
02:49 34.6 °F 33.3 °F 29.94 in Calm     95% 0.00 in
02:54 34.6 °F 33.3 °F 29.94 in Calm     95% 0.00 in
02:59 34.6 °F 33.3 °F 29.94 in Calm     95% 0.00 in
03:04 34.7 °F 33.4 °F 29.93 in Calm     95% 0.00 in
03:09 34.6 °F 33.3 °F 29.93 in Calm     95% 0.00 in
03:14 34.7 °F 33.4 °F 29.93 in Calm     95% 0.00 in
03:19 34.7 °F 33.4 °F 29.92 in Calm     95% 0.00 in
03:24 34.8 °F 33.5 °F 29.92 in NE 3.0 mph 4.0 mph 95% 0.00 in
03:29 34.8 °F 33.5 °F 29.92 in NE 2.0 mph 3.0 mph 95% 0.00 in
03:34 34.9 °F 33.6 °F 29.91 in NE 2.0 mph 4.0 mph 95% 0.00 in
03:39 35.0 °F 33.7 °F 29.91 in NE 2.0 mph 4.0 mph 95% 0.00 in
03:44 35.0 °F 33.7 °F 29.91 in NE 1.0 mph 3.0 mph 95% 0.00 in
03:49 35.1 °F 33.8 °F 29.90 in Calm   3.0 mph 95% 0.00 in
03:54 35.1 °F 33.8 °F 29.90 in Calm   3.0 mph 95% 0.00 in
03:59 35.2 °F 33.9 °F 29.90 in NE 2.0 mph 4.0 mph 95% 0.00 in
04:04 35.3 °F 34.0 °F 29.89 in NE 2.0 mph 4.0 mph 95% 0.00 in
04:09 35.3 °F 34.0 °F 29.89 in NE 2.0 mph 4.0 mph 95% 0.00 in
04:14 35.4 °F 34.1 °F 29.89 in NE 1.0 mph 4.0 mph 95% 0.00 in
04:19 35.3 °F 34.0 °F 29.89 in Calm   2.0 mph 95% 0.00 in
04:24 35.4 °F 34.1 °F 29.89 in Calm     95% 0.00 in
04:29 35.4 °F 34.1 °F 29.89 in Calm     95% 0.00 in
04:34 35.5 °F 34.2 °F 29.88 in NE 1.0 mph 3.0 mph 95% 0.00 in
04:39 35.6 °F 34.3 °F 29.88 in NE 1.0 mph 4.0 mph 95% 0.00 in
04:44 35.6 °F 34.3 °F 29.88 in ENE 1.0 mph 4.0 mph 95% 0.00 in
04:49 35.7 °F 34.4 °F 29.88 in Calm   2.0 mph 95% 0.00 in
04:54 35.7 °F 34.4 °F 29.88 in Calm     95% 0.00 in
04:59 35.7 °F 34.4 °F 29.88 in Calm     95% 0.00 in
05:04 35.7 °F 34.4 °F 29.87 in East 2.0 mph 3.0 mph 95% 0.00 in
05:09 35.8 °F 34.5 °F 29.87 in ENE 1.0 mph 3.0 mph 95% 0.00 in
05:14 35.7 °F 34.4 °F 29.87 in ENE 1.0 mph 3.0 mph 95% 0.00 in
05:19 35.8 °F 34.5 °F 29.87 in Calm   2.0 mph 95% 0.00 in
05:24 35.9 °F 34.6 °F 29.86 in ENE 1.0 mph 4.0 mph 95% 0.00 in
05:29 35.8 °F 34.5 °F 29.86 in NE 2.0 mph 5.0 mph 95% 0.00 in
05:34 35.9 °F 34.6 °F 29.86 in NE 2.0 mph 5.0 mph 95% 0.00 in
05:39 35.8 °F 34.5 °F 29.86 in NE 2.0 mph 4.0 mph 95% 0.00 in
05:44 35.8 °F 34.5 °F 29.86 in NE 2.0 mph 4.0 mph 95% 0.00 in
05:49 35.8 °F 34.5 °F 29.85 in NE 3.0 mph 4.0 mph 95% 0.00 in
05:54 35.8 °F 34.5 °F 29.85 in NE 2.0 mph 4.0 mph 95% 0.00 in
05:59 35.8 °F 34.5 °F 29.85 in ENE 1.0 mph 4.0 mph 95% 0.00 in
06:04 35.8 °F 34.5 °F 29.85 in ENE 3.0 mph 6.0 mph 95% 0.00 in
06:09 35.8 °F 34.5 °F 29.85 in ENE 2.0 mph 5.0 mph 95% 0.00 in
06:14 35.8 °F 34.5 °F 29.85 in ENE 2.0 mph 5.0 mph 95% 0.00 in
06:19 35.8 °F 34.5 °F 29.85 in ENE 2.0 mph 5.0 mph 95% 0.00 in
06:24 35.8 °F 34.5 °F 29.85 in East 1.0 mph 5.0 mph 95% 0.00 in
06:29 35.7 °F 34.4 °F 29.85 in East 1.0 mph 4.0 mph 95% 0.00 in
06:34 35.8 °F 34.5 °F 29.85 in East 2.0 mph 6.0 mph 95% 0.00 in
06:39 35.8 °F 34.5 °F 29.85 in Calm   3.0 mph 95% 0.00 in
06:44 35.9 °F 34.6 °F 29.85 in Calm   2.0 mph 95% 0.00 in
06:49 35.8 °F 34.5 °F 29.84 in Calm   5.0 mph 95% 0.00 in
06:54 35.8 °F 34.5 °F 29.85 in ESE 1.0 mph 3.0 mph 95% 0.00 in
06:59 35.8 °F 34.5 °F 29.85 in Calm   4.0 mph 95% 0.00 in
07:04 35.9 °F 34.6 °F 29.84 in ESE 1.0 mph 3.0 mph 95% 0.00 in
07:09 35.8 °F 34.5 °F 29.84 in ESE 1.0 mph 5.0 mph 95% 0.00 in
07:14 35.8 °F 34.5 °F 29.83 in ENE 1.0 mph 3.0 mph 95% 0.00 in
07:19 35.8 °F 34.5 °F 29.83 in East 1.0 mph 3.0 mph 95% 0.00 in
07:24 35.7 °F 34.4 °F 29.84 in East 2.0 mph 4.0 mph 95% 0.00 in
07:29 35.7 °F 34.4 °F 29.84 in ESE 1.0 mph 4.0 mph 95% 0.00 in
07:34 35.7 °F 34.4 °F 29.84 in ESE 1.0 mph 5.0 mph 95% 0.00 in
07:39 35.7 °F 34.4 °F 29.83 in ESE 2.0 mph 5.0 mph 95% 0.00 in
07:44 35.7 °F 34.4 °F 29.83 in SSE 3.0 mph 5.0 mph 95% 0.00 in
07:49 35.7 °F 34.4 °F 29.83 in ESE 2.0 mph 5.0 mph 95% 0.00 in
07:54 35.6 °F 34.3 °F 29.83 in SE 3.0 mph 6.0 mph 95% 0.00 in
07:59 35.6 °F 34.0 °F 29.82 in NE 1.0 mph 4.0 mph 94% 0.00 in
08:04 35.5 °F 33.9 °F 29.82 in Calm   5.0 mph 94% 0.00 in
08:09 35.5 °F 33.9 °F 29.82 in East 2.0 mph 3.0 mph 94% 0.00 in
08:14 35.4 °F 33.8 °F 29.81 in ENE 2.0 mph 4.0 mph 94% 0.00 in
08:19 35.4 °F 33.8 °F 29.81 in ENE 2.0 mph 4.0 mph 94% 0.00 in
08:24 35.3 °F 33.7 °F 29.81 in ENE 2.0 mph 4.0 mph 94% 0.00 in
08:29 35.4 °F 33.8 °F 29.81 in ENE 2.0 mph 5.0 mph 94% 0.00 in
08:34 35.4 °F 33.8 °F 29.81 in ENE 2.0 mph 5.0 mph 94% 0.00 in
08:39 35.4 °F 33.8 °F 29.81 in ENE 2.0 mph 5.0 mph 94% 0.00 in
08:44 35.5 °F 33.9 °F 29.81 in East 2.0 mph 5.0 mph 94% 0.00 in
08:49 35.5 °F 33.9 °F 29.81 in Calm   4.0 mph 94% 0.00 in
08:54 35.6 °F 34.0 °F 29.81 in ENE 2.0 mph 5.0 mph 94% 0.00 in
08:59 36.0 °F 34.4 °F 29.81 in ENE 1.0 mph 5.0 mph 94% 0.00 in
09:04 36.3 °F 34.5 °F 29.81 in East 2.0 mph 5.0 mph 93% 0.00 in
09:09 36.7 °F 34.6 °F 29.81 in East 2.0 mph 3.0 mph 92% 0.00 in
09:14 37.0 °F 34.6 °F 29.80 in ENE 3.0 mph 3.0 mph 91% 0.00 in
09:19 37.3 °F 34.6 °F 29.80 in East 2.0 mph 4.0 mph 90% 0.00 in
09:24 37.5 °F 34.8 °F 29.80 in East 1.0 mph 5.0 mph 90% 0.00 in
09:29 37.7 °F 34.8 °F 29.80 in Calm   7.0 mph 89% 0.00 in
09:34 37.9 °F 34.9 °F 29.80 in ENE 2.0 mph 7.0 mph 89% 0.00 in
09:39 37.9 °F 34.7 °F 29.80 in ENE 2.0 mph 6.0 mph 88% 0.00 in
09:44 38.0 °F 34.8 °F 29.80 in ENE 2.0 mph 6.0 mph 88% 0.00 in
09:49 38.0 °F 34.8 °F 29.80 in NE 2.0 mph 5.0 mph 88% 0.00 in
09:54 38.2 °F 35.0 °F 29.81 in East 3.0 mph 5.0 mph 88% 0.00 in
09:59 38.3 °F 35.1 °F 29.81 in ENE 1.0 mph 5.0 mph 88% 0.00 in
10:04 38.6 °F 35.4 °F 29.81 in Calm   3.0 mph 88% 0.00 in
10:09 38.6 °F 35.4 °F 29.81 in Calm   3.0 mph 88% 0.00 in
10:19 38.9 °F 35.6 °F 29.81 in Calm   3.0 mph 88% 0.00 in
10:44 39.4 °F 36.1 °F 29.81 in NE 3.0 mph 4.0 mph 88% 0.00 in
10:49 39.5 °F 36.0 °F 29.80 in ENE 2.0 mph 4.0 mph 87% 0.00 in
10:54 39.6 °F 36.0 °F 29.80 in NE 2.0 mph 3.0 mph 87% 0.00 in
10:59 39.7 °F 35.9 °F 29.80 in NE 2.0 mph 4.0 mph 86% 0.00 in
11:04 39.8 °F 36.2 °F 29.80 in NE 1.0 mph 4.0 mph 87% 0.00 in
11:09 39.9 °F 36.3 °F 29.79 in Calm   3.0 mph 87% 0.00 in
11:14 40.2 °F 36.6 °F 29.79 in Calm   3.0 mph 87% 0.00 in
11:19 40.3 °F 36.7 °F 29.79 in NE 1.0 mph 4.0 mph 87% 0.00 in
11:24 40.2 °F 36.3 °F 29.79 in ENE 4.0 mph 4.0 mph 86% 0.00 in
11:29 40.3 °F 36.4 °F 29.78 in ENE 3.0 mph 4.0 mph 86% 0.00 in
11:44 41.1 °F 37.2 °F 29.78 in NE 1.0 mph 4.0 mph 86% 0.00 in
11:49 41.1 °F 36.9 °F 29.78 in ENE 2.0 mph 4.0 mph 85% 0.00 in
11:54 41.2 °F 37.3 °F 29.78 in NE 1.0 mph 4.0 mph 86% 0.00 in
11:59 41.3 °F 37.4 °F 29.77 in NE 2.0 mph 4.0 mph 86% 0.00 in
12:04 41.3 °F 37.4 °F 29.77 in NE 2.0 mph 4.0 mph 86% 0.00 in
12:09 41.5 °F 37.6 °F 29.77 in NE 2.0 mph 5.0 mph 86% 0.00 in
12:14 41.5 °F 37.6 °F 29.77 in NE 2.0 mph 5.0 mph 86% 0.00 in
12:19 41.6 °F 37.7 °F 29.76 in NE 3.0 mph 5.0 mph 86% 0.00 in
12:24 41.7 °F 37.8 °F 29.76 in NE 2.0 mph 4.0 mph 86% 0.00 in
12:29 41.8 °F 37.9 °F 29.76 in East 2.0 mph 3.0 mph 86% 0.00 in
12:34 41.9 °F 38.0 °F 29.75 in ENE 1.0 mph 5.0 mph 86% 0.00 in
12:39 41.8 °F 38.2 °F 29.75 in ENE 1.0 mph 4.0 mph 87% 0.00 in
12:44 41.6 °F 38.3 °F 29.75 in NE 3.0 mph 5.0 mph 88% 0.01 in
12:49 41.5 °F 38.2 °F 29.74 in NE 3.0 mph 5.0 mph 88% 0.01 in
12:54 41.5 °F 38.5 °F 29.74 in NE 1.0 mph 3.0 mph 89% 0.01 in
12:59 41.4 °F 38.7 °F 29.74 in NE 3.0 mph 5.0 mph 90% 0.02 in
13:04 41.4 °F 38.7 °F 29.74 in NE 3.0 mph 5.0 mph 90% 0.03 in
13:09 41.3 °F 38.6 °F 29.73 in NE 2.0 mph 5.0 mph 90% 0.05 in
13:14 41.4 °F 39.0 °F 29.73 in NE 2.0 mph 4.0 mph 91% 0.05 in
13:19 41.5 °F 39.1 °F 29.73 in NE 2.0 mph 4.0 mph 91% 0.06 in
13:24 41.6 °F 38.9 °F 29.73 in NE 2.0 mph 4.0 mph 90% 0.06 in
13:29 41.8 °F 39.4 °F 29.73 in NE 1.0 mph 3.0 mph 91% 0.06 in
13:34 41.8 °F 39.4 °F 29.73 in ENE 1.0 mph 3.0 mph 91% 0.06 in
13:39 41.8 °F 39.4 °F 29.72 in ENE 1.0 mph 3.0 mph 91% 0.07 in
13:44 41.8 °F 39.4 °F 29.73 in ENE 2.0 mph 3.0 mph 91% 0.06 in
13:49 41.7 °F 39.3 °F 29.72 in Calm   3.0 mph 91% 0.06 in
13:54 42.0 °F 39.8 °F 29.72 in Calm     92% 0.07 in
13:59 42.2 °F 40.0 °F 29.72 in Calm     92% 0.06 in
14:04 42.2 °F 40.0 °F 29.72 in Calm     92% 0.05 in
14:09 42.1 °F 39.7 °F 29.72 in Calm   3.0 mph 91% 0.03 in
14:14 42.2 °F 40.0 °F 29.72 in ENE 1.0 mph 4.0 mph 92% 0.03 in
14:19 42.2 °F 40.0 °F 29.73 in ENE 2.0 mph 4.0 mph 92% 0.02 in
14:24 42.2 °F 40.0 °F 29.73 in ENE 2.0 mph 4.0 mph 92% 0.02 in
14:29 42.2 °F 40.0 °F 29.73 in NE 2.0 mph 4.0 mph 92% 0.03 in
14:34 42.4 °F 40.2 °F 29.73 in NE 1.0 mph 4.0 mph 92% 0.03 in
14:39 42.5 °F 40.3 °F 29.73 in NE 1.0 mph 4.0 mph 92% 0.02 in
14:44 42.5 °F 40.3 °F 29.73 in NE 1.0 mph 3.0 mph 92% 0.02 in
14:49 42.6 °F 40.4 °F 29.73 in NE 1.0 mph 3.0 mph 92% 0.02 in
14:54 42.7 °F 40.5 °F 29.73 in NE 1.0 mph 3.0 mph 92% 0.02 in
14:59 42.7 °F 40.5 °F 29.73 in NE 1.0 mph 3.0 mph 92% 0.02 in
15:04 42.7 °F 40.5 °F 29.73 in NE 1.0 mph 2.0 mph 92% 0.02 in
15:09 42.7 °F 40.8 °F 29.73 in NE 1.0 mph 2.0 mph 93% 0.02 in
15:14 42.7 °F 40.5 °F 29.73 in NE 1.0 mph 3.0 mph 92% 0.02 in
15:19 42.5 °F 40.6 °F 29.73 in NE 2.0 mph 3.0 mph 93% 0.02 in
15:24 42.7 °F 40.8 °F 29.73 in NE 1.0 mph 3.0 mph 93% 0.03 in
15:29 42.7 °F 40.8 °F 29.73 in NE 1.0 mph 4.0 mph 93% 0.02 in
15:34 42.7 °F 40.8 °F 29.73 in NE 1.0 mph 4.0 mph 93% 0.02 in
15:39 42.7 °F 40.8 °F 29.73 in NE 1.0 mph 4.0 mph 93% 0.02 in
15:44 42.7 °F 40.8 °F 29.74 in NE 1.0 mph 4.0 mph 93% 0.02 in
15:49 42.7 °F 40.8 °F 29.73 in NE 1.0 mph 3.0 mph 93% 0.02 in
15:54 42.8 °F 40.9 °F 29.73 in NE 1.0 mph 3.0 mph 93% 0.01 in
15:59 42.9 °F 41.0 °F 29.73 in Calm   2.0 mph 93% 0.01 in
16:04 42.9 °F 41.0 °F 29.74 in Calm   2.0 mph 93% 0.01 in
16:09 42.9 °F 41.0 °F 29.74 in Calm     93% 0.02 in
16:14 43.0 °F 41.4 °F 29.73 in Calm     94% 0.02 in
16:19 43.1 °F 41.5 °F 29.73 in Calm     94% 0.02 in
16:24 43.1 °F 41.5 °F 29.73 in Calm     94% 0.01 in
16:29 43.1 °F 41.5 °F 29.73 in Calm     94% 0.01 in
16:34 43.1 °F 41.5 °F 29.73 in Calm     94% 0.01 in
16:39 43.2 °F 41.6 °F 29.73 in Calm     94% 0.01 in
16:44 43.2 °F 41.6 °F 29.73 in Calm     94% 0.01 in
16:49 43.2 °F 41.6 °F 29.73 in Calm     94% 0.01 in
16:54 43.3 °F 41.7 °F 29.73 in Calm     94% 0.01 in
16:59 43.3 °F 41.7 °F 29.73 in Calm     94% 0.01 in
17:04 43.3 °F 41.7 °F 29.73 in Calm     94% 0.01 in
17:09 43.4 °F 41.8 °F 29.73 in Calm     94% 0.00 in
17:14 43.4 °F 41.8 °F 29.73 in Calm     94% 0.00 in
17:19 43.4 °F 41.8 °F 29.73 in Calm     94% 0.00 in
17:24 43.4 °F 41.8 °F 29.74 in Calm     94% 0.00 in
17:29 43.5 °F 41.9 °F 29.73 in Calm     94% 0.00 in
17:34 43.5 °F 41.9 °F 29.73 in Calm     94% 0.00 in
17:39 43.5 °F 41.9 °F 29.74 in Calm     94% 0.00 in
17:44 43.5 °F 41.9 °F 29.74 in Calm     94% 0.00 in
17:49 43.6 °F 42.0 °F 29.74 in Calm     94% 0.00 in
17:54 43.6 °F 42.0 °F 29.74 in Calm     94% 0.00 in
17:59 43.6 °F 42.0 °F 29.74 in Calm     94% 0.00 in
18:04 43.6 °F 42.0 °F 29.74 in Calm     94% 0.00 in
18:09 43.6 °F 42.0 °F 29.74 in Calm     94% 0.00 in
18:14 43.7 °F 42.1 °F 29.74 in Calm     94% 0.00 in
18:19 43.7 °F 42.1 °F 29.75 in Calm     94% 0.00 in
18:24 43.6 °F 42.0 °F 29.74 in Calm     94% 0.01 in
18:29 43.7 °F 42.1 °F 29.75 in Calm     94% 0.01 in
18:34 43.7 °F 42.1 °F 29.75 in Calm     94% 0.01 in
18:39 43.7 °F 42.1 °F 29.75 in Calm     94% 0.01 in
18:44 43.7 °F 42.1 °F 29.75 in Calm     94% 0.01 in
18:49 43.7 °F 42.1 °F 29.75 in Calm     94% 0.01 in
18:54 43.7 °F 42.1 °F 29.75 in Calm     94% 0.01 in
18:59 43.8 °F 42.2 °F 29.75 in Calm     94% 0.01 in
19:04 43.8 °F 42.2 °F 29.75 in Calm     94% 0.01 in
19:09 43.8 °F 42.2 °F 29.75 in Calm     94% 0.01 in
19:14 43.8 °F 42.2 °F 29.75 in Calm     94% 0.01 in
19:19 43.9 °F 42.3 °F 29.75 in Calm     94% 0.01 in
19:24 43.9 °F 42.6 °F 29.75 in Calm     95% 0.00 in
19:29 44.0 °F 42.4 °F 29.75 in Calm     94% 0.00 in
19:34 44.0 °F 42.4 °F 29.75 in Calm     94% 0.00 in
19:39 44.0 °F 42.4 °F 29.75 in Calm     94% 0.00 in
19:44 44.0 °F 42.4 °F 29.75 in Calm     94% 0.00 in
19:49 44.1 °F 42.8 °F 29.75 in Calm     95% 0.00 in
19:54 44.1 °F 42.8 °F 29.75 in Calm     95% 0.00 in
19:59 44.1 °F 42.8 °F 29.75 in Calm     95% 0.00 in
20:04 44.2 °F 42.9 °F 29.75 in Calm     95% 0.00 in
20:09 44.2 °F 42.9 °F 29.76 in Calm     95% 0.00 in
20:14 44.2 °F 42.9 °F 29.75 in Calm     95% 0.00 in
20:19 44.3 °F 43.0 °F 29.75 in Calm     95% 0.00 in
20:24 44.3 °F 43.0 °F 29.75 in Calm     95% 0.00 in
20:29 44.3 °F 43.0 °F 29.75 in Calm     95% 0.00 in
20:34 44.3 °F 43.0 °F 29.75 in Calm     95% 0.00 in
20:39 44.4 °F 43.1 °F 29.76 in Calm     95% 0.00 in
20:44 44.3 °F 43.0 °F 29.76 in Calm     95% 0.00 in
20:49 44.3 °F 43.0 °F 29.76 in Calm     95% 0.00 in
20:54 44.4 °F 43.1 °F 29.76 in Calm     95% 0.00 in
20:59 44.6 °F 43.3 °F 29.76 in SW 1.0 mph 4.0 mph 95% 0.00 in
21:04 45.1 °F 43.8 °F 29.76 in SW 2.0 mph 5.0 mph 95% 0.00 in
21:09 45.7 °F 44.4 °F 29.76 in SSW 3.0 mph 6.0 mph 95% 0.00 in
21:14 46.3 °F 45.2 °F 29.76 in WSW 2.0 mph 6.0 mph 96% 0.00 in
21:19 46.5 °F 45.4 °F 29.77 in SW 4.0 mph 5.0 mph 96% 0.00 in
21:24 46.8 °F 45.4 °F 29.77 in WSW 2.0 mph 5.0 mph 95% 0.00 in
21:29 46.9 °F 45.8 °F 29.77 in SW 3.0 mph 6.0 mph 96% 0.00 in
21:34 47.1 °F 46.0 °F 29.77 in SW 4.0 mph 8.0 mph 96% 0.00 in
21:39 47.2 °F 45.8 °F 29.77 in WSW 4.0 mph 8.0 mph 95% 0.00 in
21:44 47.2 °F 45.8 °F 29.77 in SW 10.0 mph 11.0 mph 95% 0.00 in
21:49 47.1 °F 45.7 °F 29.77 in WSW 5.0 mph 9.0 mph 95% 0.00 in
21:54 47.0 °F 45.6 °F 29.77 in SW 6.0 mph 10.0 mph 95% 0.00 in
21:59 46.7 °F 45.3 °F 29.77 in WSW 5.0 mph 10.0 mph 95% 0.00 in
22:04 46.5 °F 45.1 °F 29.77 in WSW 5.0 mph 10.0 mph 95% 0.00 in
22:09 46.3 °F 44.9 °F 29.78 in SW 3.0 mph 9.0 mph 95% 0.00 in
22:14 46.1 °F 44.7 °F 29.78 in WSW 11.0 mph 13.0 mph 95% 0.00 in
22:19 45.9 °F 44.5 °F 29.78 in SSW 6.0 mph 13.0 mph 95% 0.00 in
22:24 45.7 °F 44.4 °F 29.78 in WSW 7.0 mph 10.0 mph 95% 0.00 in
22:29 45.6 °F 44.3 °F 29.78 in WSW 6.0 mph 10.0 mph 95% 0.00 in
22:34 45.6 °F 44.3 °F 29.78 in WSW 6.0 mph 13.0 mph 95% 0.00 in
22:39 45.6 °F 44.3 °F 29.78 in WSW 6.0 mph 13.0 mph 95% 0.00 in
22:44 45.5 °F 44.2 °F 29.78 in SSW 7.0 mph 13.0 mph 95% 0.00 in
22:49 45.4 °F 44.1 °F 29.78 in SW 5.0 mph 12.0 mph 95% 0.00 in
22:54 45.2 °F 43.9 °F 29.79 in SW 7.0 mph 12.0 mph 95% 0.00 in
22:59 44.9 °F 43.6 °F 29.79 in SW 3.0 mph 10.0 mph 95% 0.00 in
23:04 44.3 °F 42.7 °F 29.79 in SW 6.0 mph 14.0 mph 94% 0.00 in
23:09 43.8 °F 42.2 °F 29.79 in SW 7.0 mph 14.0 mph 94% 0.00 in
23:14 43.3 °F 41.7 °F 29.79 in WSW 5.0 mph 11.0 mph 94% 0.00 in
23:19 43.1 °F 41.8 °F 29.79 in SW 6.0 mph 9.0 mph 95% 0.00 in
23:24 42.9 °F 41.6 °F 29.79 in South 3.0 mph 11.0 mph 95% 0.00 in
23:29 42.8 °F 41.5 °F 29.79 in West 4.0 mph 10.0 mph 95% 0.00 in
23:34 42.7 °F 41.4 °F 29.79 in SW 5.0 mph 10.0 mph 95% 0.00 in
23:39 42.6 °F 41.3 °F 29.80 in WSW 5.0 mph 10.0 mph 95% 0.00 in
23:44 42.5 °F 41.2 °F 29.80 in WSW 5.0 mph 10.0 mph 95% 0.00 in
23:49 42.2 °F 40.9 °F 29.80 in SW 6.0 mph 10.0 mph 95% 0.00 in
23:54 42.0 °F 40.7 °F 29.80 in WSW 4.0 mph 9.0 mph 95% 0.00 in
23:59 41.8 °F 40.5 °F 29.80 in WSW 6.0 mph 11.0 mph 95% 0.00 in
Buffalo, New York, USA
Compliments of Weather Underground - 2.5 mb